sensor_id;sensor_type;location;lat;lon;timestamp;pressure;altitude;pressure_sealevel;temperature;humidity
64025;BME280;50266;57.446;26.936;2024-03-08T00:00:17;99944.52;;;-4.39;100.0
64025;BME280;50266;57.446;26.936;2024-03-08T00:01:16;99945.94;;;-4.37;100.0
64025;BME280;50266;57.446;26.936;2024-03-08T00:02:16;99944.7;;;-4.36;100.0
64025;BME280;50266;57.446;26.936;2024-03-08T00:03:16;99945.8;;;-4.33;100.0
64025;BME280;50266;57.446;26.936;2024-03-08T00:04:16;99941.58;;;-4.34;100.0
64025;BME280;50266;57.446;26.936;2024-03-08T00:05:19;99944.28;;;-4.32;100.0
64025;BME280;50266;57.446;26.936;2024-03-08T00:06:16;99946.45;;;-4.3;100.0
64025;BME280;50266;57.446;26.936;2024-03-08T00:07:16;99946.41;;;-4.28;100.0
64025;BME280;50266;57.446;26.936;2024-03-08T00:08:16;99944.56;;;-4.3;100.0
64025;BME280;50266;57.446;26.936;2024-03-08T00:09:16;99943.75;;;-4.29;100.0
64025;BME280;50266;57.446;26.936;2024-03-08T00:10:16;99943.7;;;-4.3;100.0
64025;BME280;50266;57.446;26.936;2024-03-08T00:11:16;99945.7;;;-4.28;100.0
64025;BME280;50266;57.446;26.936;2024-03-08T00:12:16;99944.45;;;-4.32;100.0
64025;BME280;50266;57.446;26.936;2024-03-08T00:13:16;99943.38;;;-4.31;100.0
64025;BME280;50266;57.446;26.936;2024-03-08T00:14:16;99943.27;;;-4.3;100.0
64025;BME280;50266;57.446;26.936;2024-03-08T00:15:16;99943.53;;;-4.33;100.0
64025;BME280;50266;57.446;26.936;2024-03-08T00:16:16;99945.05;;;-4.34;100.0
64025;BME280;50266;57.446;26.936;2024-03-08T00:17:16;99944.19;;;-4.3;100.0
64025;BME280;50266;57.446;26.936;2024-03-08T00:18:16;99936.13;;;-4.29;100.0
64025;BME280;50266;57.446;26.936;2024-03-08T00:19:16;99943.8;;;-4.32;100.0
64025;BME280;50266;57.446;26.936;2024-03-08T00:20:16;99943.75;;;-4.31;100.0
64025;BME280;50266;57.446;26.936;2024-03-08T00:21:16;99940.5;;;-4.31;100.0
64025;BME280;50266;57.446;26.936;2024-03-08T00:22:16;99937.91;;;-4.33;100.0
64025;BME280;50266;57.446;26.936;2024-03-08T00:23:16;99939.74;;;-4.34;100.0
64025;BME280;50266;57.446;26.936;2024-03-08T00:24:16;99941.69;;;-4.35;100.0
64025;BME280;50266;57.446;26.936;2024-03-08T00:25:16;99940.55;;;-4.34;100.0
64025;BME280;50266;57.446;26.936;2024-03-08T00:26:16;99938.02;;;-4.31;100.0
64025;BME280;50266;57.446;26.936;2024-03-08T00:27:16;99940.77;;;-4.35;100.0
64025;BME280;50266;57.446;26.936;2024-03-08T00:28:16;99940.26;;;-4.37;100.0
64025;BME280;50266;57.446;26.936;2024-03-08T00:29:16;99942.31;;;-4.37;100.0
64025;BME280;50266;57.446;26.936;2024-03-08T00:30:16;99937.09;;;-4.32;100.0
64025;BME280;50266;57.446;26.936;2024-03-08T00:31:16;99935.69;;;-4.32;100.0
64025;BME280;50266;57.446;26.936;2024-03-08T00:32:16;99936.34;;;-4.35;100.0
64025;BME280;50266;57.446;26.936;2024-03-08T00:33:16;99934.78;;;-4.32;100.0
64025;BME280;50266;57.446;26.936;2024-03-08T00:34:16;99931.59;;;-4.31;100.0
64025;BME280;50266;57.446;26.936;2024-03-08T00:35:16;99934.78;;;-4.26;100.0
64025;BME280;50266;57.446;26.936;2024-03-08T00:36:16;99936.19;;;-4.27;100.0
64025;BME280;50266;57.446;26.936;2024-03-08T00:37:16;99932.08;;;-4.31;100.0
64025;BME280;50266;57.446;26.936;2024-03-08T00:38:16;99935.1;;;-4.29;100.0
64025;BME280;50266;57.446;26.936;2024-03-08T00:39:16;99933.44;;;-4.25;100.0
64025;BME280;50266;57.446;26.936;2024-03-08T00:40:17;99935.98;;;-4.24;100.0
64025;BME280;50266;57.446;26.936;2024-03-08T00:41:16;99938.19;;;-4.29;100.0
64025;BME280;50266;57.446;26.936;2024-03-08T00:42:17;99936.46;;;-4.25;100.0
64025;BME280;50266;57.446;26.936;2024-03-08T00:43:16;99935.05;;;-4.24;100.0
64025;BME280;50266;57.446;26.936;2024-03-08T00:44:16;99938.46;;;-4.25;100.0
64025;BME280;50266;57.446;26.936;2024-03-08T00:45:16;99944.61;;;-4.33;100.0
64025;BME280;50266;57.446;26.936;2024-03-08T00:46:16;99942.51;;;-4.3;100.0
64025;BME280;50266;57.446;26.936;2024-03-08T00:47:17;99942.67;;;-4.29;100.0
64025;BME280;50266;57.446;26.936;2024-03-08T00:48:17;99945.38;;;-4.24;100.0
64025;BME280;50266;57.446;26.936;2024-03-08T00:49:16;99939.87;;;-4.24;100.0
64025;BME280;50266;57.446;26.936;2024-03-08T00:50:17;99933.11;;;-4.27;100.0
64025;BME280;50266;57.446;26.936;2024-03-08T00:51:17;99934.19;;;-4.25;100.0
64025;BME280;50266;57.446;26.936;2024-03-08T00:52:17;99931.98;;;-4.23;100.0
64025;BME280;50266;57.446;26.936;2024-03-08T00:53:17;99937.48;;;-4.25;100.0
64025;BME280;50266;57.446;26.936;2024-03-08T00:54:17;99938.14;;;-4.23;100.0
64025;BME280;50266;57.446;26.936;2024-03-08T00:55:17;99935.48;;;-4.27;100.0
64025;BME280;50266;57.446;26.936;2024-03-08T00:56:17;99935.32;;;-4.3;100.0
64025;BME280;50266;57.446;26.936;2024-03-08T00:57:17;99931.05;;;-4.3;100.0
64025;BME280;50266;57.446;26.936;2024-03-08T00:58:17;99933.53;;;-4.32;100.0
64025;BME280;50266;57.446;26.936;2024-03-08T00:59:17;99934.4;;;-4.31;100.0
64025;BME280;50266;57.446;26.936;2024-03-08T01:00:17;99929.53;;;-4.28;100.0
64025;BME280;50266;57.446;26.936;2024-03-08T01:01:18;99934.29;;;-4.33;100.0
64025;BME280;50266;57.446;26.936;2024-03-08T01:02:17;99925.56;;;-4.36;100.0
64025;BME280;50266;57.446;26.936;2024-03-08T01:03:17;99928.66;;;-4.35;100.0
64025;BME280;50266;57.446;26.936;2024-03-08T01:04:17;99931.2;;;-4.35;100.0
64025;BME280;50266;57.446;26.936;2024-03-08T01:05:17;99929.2;;;-4.33;100.0
64025;BME280;50266;57.446;26.936;2024-03-08T01:06:17;99930.96;;;-4.38;100.0
64025;BME280;50266;57.446;26.936;2024-03-08T01:07:17;99931.45;;;-4.37;100.0
64025;BME280;50266;57.446;26.936;2024-03-08T01:08:17;99928.88;;;-4.35;100.0
64025;BME280;50266;57.446;26.936;2024-03-08T01:09:17;99925.09;;;-4.35;100.0
64025;BME280;50266;57.446;26.936;2024-03-08T01:10:17;99927.2;;;-4.34;100.0
64025;BME280;50266;57.446;26.936;2024-03-08T01:11:17;99929.69;;;-4.34;100.0
64025;BME280;50266;57.446;26.936;2024-03-08T01:12:17;99932.28;;;-4.33;100.0
64025;BME280;50266;57.446;26.936;2024-03-08T01:13:17;99934.83;;;-4.3;100.0
64025;BME280;50266;57.446;26.936;2024-03-08T01:14:17;99933.86;;;-4.32;100.0
64025;BME280;50266;57.446;26.936;2024-03-08T01:15:17;99933.16;;;-4.45;100.0
64025;BME280;50266;57.446;26.936;2024-03-08T01:16:17;99933.0;;;-4.49;100.0
64025;BME280;50266;57.446;26.936;2024-03-08T01:17:17;99936.45;;;-4.49;100.0
64025;BME280;50266;57.446;26.936;2024-03-08T01:18:17;99934.56;;;-4.48;100.0
64025;BME280;50266;57.446;26.936;2024-03-08T01:19:17;99937.73;;;-4.53;100.0
64025;BME280;50266;57.446;26.936;2024-03-08T01:20:17;99933.16;;;-4.5;100.0
64025;BME280;50266;57.446;26.936;2024-03-08T01:21:17;99936.78;;;-4.47;100.0
64025;BME280;50266;57.446;26.936;2024-03-08T01:22:17;99935.92;;;-4.47;100.0
64025;BME280;50266;57.446;26.936;2024-03-08T01:23:17;99936.89;;;-4.48;100.0
64025;BME280;50266;57.446;26.936;2024-03-08T01:24:17;99929.7;;;-4.47;100.0
64025;BME280;50266;57.446;26.936;2024-03-08T01:25:17;99934.17;;;-4.54;100.0
64025;BME280;50266;57.446;26.936;2024-03-08T01:26:17;99932.55;;;-4.52;100.0
64025;BME280;50266;57.446;26.936;2024-03-08T01:27:17;99937.37;;;-4.51;100.0
64025;BME280;50266;57.446;26.936;2024-03-08T01:28:17;99935.27;;;-4.46;100.0
64025;BME280;50266;57.446;26.936;2024-03-08T01:29:17;99936.83;;;-4.51;100.0
64025;BME280;50266;57.446;26.936;2024-03-08T01:30:17;99937.69;;;-4.51;100.0
64025;BME280;50266;57.446;26.936;2024-03-08T01:31:17;99937.09;;;-4.53;100.0
64025;BME280;50266;57.446;26.936;2024-03-08T01:32:17;99934.88;;;-4.5;100.0
64025;BME280;50266;57.446;26.936;2024-03-08T01:33:17;99936.13;;;-4.46;100.0
64025;BME280;50266;57.446;26.936;2024-03-08T01:34:17;99937.92;;;-4.46;100.0
64025;BME280;50266;57.446;26.936;2024-03-08T01:35:17;99936.73;;;-4.45;100.0
64025;BME280;50266;57.446;26.936;2024-03-08T01:36:17;99935.33;;;-4.43;100.0
64025;BME280;50266;57.446;26.936;2024-03-08T01:37:17;99931.22;;;-4.47;100.0
64025;BME280;50266;57.446;26.936;2024-03-08T01:38:17;99938.67;;;-4.47;100.0
64025;BME280;50266;57.446;26.936;2024-03-08T01:39:17;99935.6;;;-4.42;100.0
64025;BME280;50266;57.446;26.936;2024-03-08T01:40:17;99939.22;;;-4.43;100.0
64025;BME280;50266;57.446;26.936;2024-03-08T01:41:17;99934.47;;;-4.43;100.0
64025;BME280;50266;57.446;26.936;2024-03-08T01:42:17;99933.06;;;-4.39;100.0
64025;BME280;50266;57.446;26.936;2024-03-08T01:43:21;99935.78;;;-4.36;100.0
64025;BME280;50266;57.446;26.936;2024-03-08T01:44:18;99930.56;;;-4.3;100.0
64025;BME280;50266;57.446;26.936;2024-03-08T01:45:18;99934.56;;;-4.28;100.0
64025;BME280;50266;57.446;26.936;2024-03-08T01:46:19;99934.41;;;-4.28;100.0
64025;BME280;50266;57.446;26.936;2024-03-08T01:47:18;99930.05;;;-4.38;100.0
64025;BME280;50266;57.446;26.936;2024-03-08T01:48:18;99931.09;;;-4.34;100.0
64025;BME280;50266;57.446;26.936;2024-03-08T01:49:18;99928.62;;;-4.29;100.0
64025;BME280;50266;57.446;26.936;2024-03-08T01:50:18;99928.29;;;-4.31;100.0
64025;BME280;50266;57.446;26.936;2024-03-08T01:51:18;99924.19;;;-4.3;100.0
64025;BME280;50266;57.446;26.936;2024-03-08T01:52:18;99926.89;;;-4.29;100.0
64025;BME280;50266;57.446;26.936;2024-03-08T01:53:18;99929.16;;;-4.3;100.0
64025;BME280;50266;57.446;26.936;2024-03-08T01:54:18;99925.75;;;-4.29;100.0
64025;BME280;50266;57.446;26.936;2024-03-08T01:55:18;99930.5;;;-4.32;100.0
64025;BME280;50266;57.446;26.936;2024-03-08T01:56:18;99928.08;;;-4.28;100.0
64025;BME280;50266;57.446;26.936;2024-03-08T01:57:18;99928.67;;;-4.29;100.0
64025;BME280;50266;57.446;26.936;2024-03-08T01:58:18;99925.2;;;-4.33;100.0
64025;BME280;50266;57.446;26.936;2024-03-08T01:59:18;99929.27;;;-4.3;100.0
64025;BME280;50266;57.446;26.936;2024-03-08T02:00:18;99931.75;;;-4.32;100.0
64025;BME280;50266;57.446;26.936;2024-03-08T02:01:18;99928.18;;;-4.31;100.0
64025;BME280;50266;57.446;26.936;2024-03-08T02:02:18;99928.02;;;-4.3;100.0
64025;BME280;50266;57.446;26.936;2024-03-08T02:03:18;99924.88;;;-4.33;100.0
64025;BME280;50266;57.446;26.936;2024-03-08T02:04:18;99927.42;;;-4.32;100.0
64025;BME280;50266;57.446;26.936;2024-03-08T02:05:18;99926.23;;;-4.33;100.0
64025;BME280;50266;57.446;26.936;2024-03-08T02:06:18;99927.8;;;-4.28;100.0
64025;BME280;50266;57.446;26.936;2024-03-08T02:07:18;99928.56;;;-4.25;100.0
64025;BME280;50266;57.446;26.936;2024-03-08T02:08:18;99925.22;;;-4.23;100.0
64025;BME280;50266;57.446;26.936;2024-03-08T02:09:18;99926.78;;;-4.25;100.0
64025;BME280;50266;57.446;26.936;2024-03-08T02:10:18;99926.19;;;-4.23;100.0
64025;BME280;50266;57.446;26.936;2024-03-08T02:11:18;99923.66;;;-4.2;100.0
64025;BME280;50266;57.446;26.936;2024-03-08T02:12:18;99922.69;;;-4.18;100.0
64025;BME280;50266;57.446;26.936;2024-03-08T02:13:18;99926.09;;;-4.23;100.0
64025;BME280;50266;57.446;26.936;2024-03-08T02:14:18;99931.59;;;-4.29;100.0
64025;BME280;50266;57.446;26.936;2024-03-08T02:15:18;99930.89;;;-4.28;100.0
64025;BME280;50266;57.446;26.936;2024-03-08T02:16:21;99930.24;;;-4.26;100.0
64025;BME280;50266;57.446;26.936;2024-03-08T02:17:18;99927.81;;;-4.18;100.0
64025;BME280;50266;57.446;26.936;2024-03-08T02:18:18;99925.86;;;-4.27;100.0
64025;BME280;50266;57.446;26.936;2024-03-08T02:19:18;99916.67;;;-4.3;100.0
64025;BME280;50266;57.446;26.936;2024-03-08T02:20:18;99920.4;;;-4.28;100.0
64025;BME280;50266;57.446;26.936;2024-03-08T02:21:18;99922.45;;;-4.26;100.0
64025;BME280;50266;57.446;26.936;2024-03-08T02:22:18;99916.19;;;-4.22;100.0
64025;BME280;50266;57.446;26.936;2024-03-08T02:23:19;99914.57;;;-4.2;100.0
64025;BME280;50266;57.446;26.936;2024-03-08T02:24:18;99912.68;;;-4.17;100.0
64025;BME280;50266;57.446;26.936;2024-03-08T02:25:18;99907.35;;;-4.11;100.0
64025;BME280;50266;57.446;26.936;2024-03-08T02:26:18;99904.7;;;-4.1;100.0
64025;BME280;50266;57.446;26.936;2024-03-08T02:27:23;99898.97;;;-4.08;100.0
64025;BME280;50266;57.446;26.936;2024-03-08T02:28:20;99906.86;;;-4.11;100.0
64025;BME280;50266;57.446;26.936;2024-03-08T02:29:20;99907.44;;;-4.15;100.0
64025;BME280;50266;57.446;26.936;2024-03-08T02:30:20;99909.89;;;-4.09;100.0
64025;BME280;50266;57.446;26.936;2024-03-08T02:31:20;99906.7;;;-4.12;100.0
64025;BME280;50266;57.446;26.936;2024-03-08T02:32:20;99908.92;;;-4.13;100.0
64025;BME280;50266;57.446;26.936;2024-03-08T02:33:20;99908.05;;;-4.14;100.0
64025;BME280;50266;57.446;26.936;2024-03-08T02:34:20;99909.38;;;-4.18;100.0
64025;BME280;50266;57.446;26.936;2024-03-08T02:35:20;99908.3;;;-4.16;100.0
64025;BME280;50266;57.446;26.936;2024-03-08T02:36:20;99903.0;;;-4.17;100.0
64025;BME280;50266;57.446;26.936;2024-03-08T02:37:20;99905.22;;;-4.23;100.0
64025;BME280;50266;57.446;26.936;2024-03-08T02:38:20;99910.45;;;-4.23;100.0
64025;BME280;50266;57.446;26.936;2024-03-08T02:39:20;99912.78;;;-4.21;100.0
64025;BME280;50266;57.446;26.936;2024-03-08T02:40:20;99911.52;;;-4.14;100.0
64025;BME280;50266;57.446;26.936;2024-03-08T02:41:20;99906.52;;;-4.16;100.0
64025;BME280;50266;57.446;26.936;2024-03-08T02:42:20;99906.95;;;-4.18;100.0
64025;BME280;50266;57.446;26.936;2024-03-08T02:43:21;99918.19;;;-4.2;100.0
64025;BME280;50266;57.446;26.936;2024-03-08T02:44:20;99915.48;;;-4.2;100.0
64025;BME280;50266;57.446;26.936;2024-03-08T02:45:20;99913.27;;;-4.24;100.0
64025;BME280;50266;57.446;26.936;2024-03-08T02:46:20;99912.57;;;-4.2;100.0
64025;BME280;50266;57.446;26.936;2024-03-08T02:47:20;99905.67;;;-4.14;100.0
64025;BME280;50266;57.446;26.936;2024-03-08T02:48:20;99912.33;;;-4.09;100.0
64025;BME280;50266;57.446;26.936;2024-03-08T02:49:20;99911.67;;;-4.03;100.0
64025;BME280;50266;57.446;26.936;2024-03-08T02:50:20;99908.27;;;-4.02;100.0
64025;BME280;50266;57.446;26.936;2024-03-08T02:51:20;99906.0;;;-4.04;100.0
64025;BME280;50266;57.446;26.936;2024-03-08T02:52:20;99905.78;;;-4.08;100.0
64025;BME280;50266;57.446;26.936;2024-03-08T02:53:20;99905.08;;;-4.14;100.0
64025;BME280;50266;57.446;26.936;2024-03-08T02:54:20;99902.43;;;-4.12;100.0
64025;BME280;50266;57.446;26.936;2024-03-08T02:55:20;99899.08;;;-4.12;100.0
64025;BME280;50266;57.446;26.936;2024-03-08T02:56:20;99899.02;;;-4.08;100.0
64025;BME280;50266;57.446;26.936;2024-03-08T02:57:20;99901.78;;;-4.04;100.0
64025;BME280;50266;57.446;26.936;2024-03-08T02:58:20;99899.51;;;-4.04;100.0
64025;BME280;50266;57.446;26.936;2024-03-08T02:59:20;99898.53;;;-4.12;100.0
64025;BME280;50266;57.446;26.936;2024-03-08T03:00:20;99901.13;;;-4.14;100.0
64025;BME280;50266;57.446;26.936;2024-03-08T03:01:21;99905.02;;;-4.09;100.0
64025;BME280;50266;57.446;26.936;2024-03-08T03:02:20;99899.33;;;-4.16;100.0
64025;BME280;50266;57.446;26.936;2024-03-08T03:03:20;99898.78;;;-4.15;100.0
64025;BME280;50266;57.446;26.936;2024-03-08T03:04:20;99896.97;;;-4.11;100.0
64025;BME280;50266;57.446;26.936;2024-03-08T03:05:20;99892.05;;;-4.08;100.0
64025;BME280;50266;57.446;26.936;2024-03-08T03:06:20;99897.4;;;-4.09;100.0
64025;BME280;50266;57.446;26.936;2024-03-08T03:07:20;99900.91;;;-4.14;100.0
64025;BME280;50266;57.446;26.936;2024-03-08T03:08:20;99900.05;;;-4.11;100.0
64025;BME280;50266;57.446;26.936;2024-03-08T03:09:21;99900.43;;;-4.11;100.0
64025;BME280;50266;57.446;26.936;2024-03-08T03:10:21;99901.41;;;-4.1;100.0
64025;BME280;50266;57.446;26.936;2024-03-08T03:11:21;99900.64;;;-4.09;100.0
64025;BME280;50266;57.446;26.936;2024-03-08T03:12:21;99904.54;;;-4.12;100.0
64025;BME280;50266;57.446;26.936;2024-03-08T03:13:21;99905.78;;;-4.12;100.0
64025;BME280;50266;57.446;26.936;2024-03-08T03:14:21;99906.7;;;-4.13;100.0
64025;BME280;50266;57.446;26.936;2024-03-08T03:15:21;99910.14;;;-4.17;100.0
64025;BME280;50266;57.446;26.936;2024-03-08T03:16:21;99906.14;;;-4.18;100.0
64025;BME280;50266;57.446;26.936;2024-03-08T03:17:21;99903.11;;;-4.17;100.0
64025;BME280;50266;57.446;26.936;2024-03-08T03:18:21;99903.11;;;-4.18;100.0
64025;BME280;50266;57.446;26.936;2024-03-08T03:19:21;99906.94;;;-4.25;100.0
64025;BME280;50266;57.446;26.936;2024-03-08T03:20:21;99902.73;;;-4.28;100.0
64025;BME280;50266;57.446;26.936;2024-03-08T03:21:21;99900.02;;;-4.23;100.0
64025;BME280;50266;57.446;26.936;2024-03-08T03:22:21;99901.59;;;-4.2;100.0
64025;BME280;50266;57.446;26.936;2024-03-08T03:23:21;99898.41;;;-4.16;100.0
64025;BME280;50266;57.446;26.936;2024-03-08T03:24:21;99904.11;;;-4.13;100.0
64025;BME280;50266;57.446;26.936;2024-03-08T03:25:21;99905.56;;;-4.13;100.0
64025;BME280;50266;57.446;26.936;2024-03-08T03:26:21;99905.87;;;-4.15;100.0
64025;BME280;50266;57.446;26.936;2024-03-08T03:27:21;99908.19;;;-4.19;100.0
64025;BME280;50266;57.446;26.936;2024-03-08T03:28:21;99910.08;;;-4.19;100.0
64025;BME280;50266;57.446;26.936;2024-03-08T03:29:21;99913.92;;;-4.18;100.0
64025;BME280;50266;57.446;26.936;2024-03-08T03:30:21;99910.67;;;-4.23;100.0
64025;BME280;50266;57.446;26.936;2024-03-08T03:31:21;99911.27;;;-4.2;100.0
64025;BME280;50266;57.446;26.936;2024-03-08T03:32:21;99907.38;;;-4.17;100.0
64025;BME280;50266;57.446;26.936;2024-03-08T03:33:21;99907.33;;;-4.18;100.0
64025;BME280;50266;57.446;26.936;2024-03-08T03:34:21;99899.11;;;-4.25;100.0
64025;BME280;50266;57.446;26.936;2024-03-08T03:35:21;99909.27;;;-4.25;100.0
64025;BME280;50266;57.446;26.936;2024-03-08T03:36:21;99905.11;;;-4.23;100.0
64025;BME280;50266;57.446;26.936;2024-03-08T03:37:21;99907.75;;;-4.25;100.0
64025;BME280;50266;57.446;26.936;2024-03-08T03:38:21;99906.41;;;-4.26;100.0
64025;BME280;50266;57.446;26.936;2024-03-08T03:39:21;99905.96;;;-4.35;100.0
64025;BME280;50266;57.446;26.936;2024-03-08T03:40:21;99905.61;;;-4.39;100.0
64025;BME280;50266;57.446;26.936;2024-03-08T03:41:21;99906.86;;;-4.38;100.0
64025;BME280;50266;57.446;26.936;2024-03-08T03:42:21;99908.77;;;-4.34;100.0
64025;BME280;50266;57.446;26.936;2024-03-08T03:43:21;99910.8;;;-4.37;100.0
64025;BME280;50266;57.446;26.936;2024-03-08T03:44:21;99909.83;;;-4.38;100.0
64025;BME280;50266;57.446;26.936;2024-03-08T03:45:21;99910.16;;;-4.39;100.0
64025;BME280;50266;57.446;26.936;2024-03-08T03:46:21;99909.83;;;-4.4;100.0
64025;BME280;50266;57.446;26.936;2024-03-08T03:47:21;99911.02;;;-4.43;100.0
64025;BME280;50266;57.446;26.936;2024-03-08T03:48:21;99905.02;;;-4.38;100.0
64025;BME280;50266;57.446;26.936;2024-03-08T03:49:21;99904.8;;;-4.39;100.0
64025;BME280;50266;57.446;26.936;2024-03-08T03:50:21;99908.08;;;-4.53;100.0
64025;BME280;50266;57.446;26.936;2024-03-08T03:51:21;99906.83;;;-4.53;100.0
64025;BME280;50266;57.446;26.936;2024-03-08T03:52:21;99908.73;;;-4.47;100.0
64025;BME280;50266;57.446;26.936;2024-03-08T03:53:21;99912.63;;;-4.43;100.0
64025;BME280;50266;57.446;26.936;2024-03-08T03:54:21;99916.62;;;-4.44;100.0
64025;BME280;50266;57.446;26.936;2024-03-08T03:55:21;99910.09;;;-4.39;100.0
64025;BME280;50266;57.446;26.936;2024-03-08T03:56:24;99913.61;;;-4.37;100.0
64025;BME280;50266;57.446;26.936;2024-03-08T03:57:21;99909.48;;;-4.55;100.0
64025;BME280;50266;57.446;26.936;2024-03-08T03:58:21;99908.51;;;-4.53;100.0
64025;BME280;50266;57.446;26.936;2024-03-08T03:59:21;99905.83;;;-4.56;100.0
64025;BME280;50266;57.446;26.936;2024-03-08T04:00:21;99903.2;;;-4.56;100.0
64025;BME280;50266;57.446;26.936;2024-03-08T04:01:22;99901.12;;;-4.56;100.0
64025;BME280;50266;57.446;26.936;2024-03-08T04:02:21;99899.51;;;-4.58;100.0
64025;BME280;50266;57.446;26.936;2024-03-08T04:03:21;99900.0;;;-4.56;100.0
64025;BME280;50266;57.446;26.936;2024-03-08T04:04:21;99905.75;;;-4.54;100.0
64025;BME280;50266;57.446;26.936;2024-03-08T04:05:21;99903.11;;;-4.53;100.0
64025;BME280;50266;57.446;26.936;2024-03-08T04:06:22;99899.91;;;-4.55;100.0
64025;BME280;50266;57.446;26.936;2024-03-08T04:07:22;99904.19;;;-4.53;100.0
64025;BME280;50266;57.446;26.936;2024-03-08T04:08:22;99896.41;;;-4.48;100.0
64025;BME280;50266;57.446;26.936;2024-03-08T04:09:22;99897.28;;;-4.47;100.0
64025;BME280;50266;57.446;26.936;2024-03-08T04:10:22;99907.11;;;-4.5;100.0
64025;BME280;50266;57.446;26.936;2024-03-08T04:11:22;99906.1;;;-4.58;100.0
64025;BME280;50266;57.446;26.936;2024-03-08T04:12:22;99907.82;;;-4.6;100.0
64025;BME280;50266;57.446;26.936;2024-03-08T04:13:22;99904.91;;;-4.57;100.0
64025;BME280;50266;57.446;26.936;2024-03-08T04:14:22;99902.91;;;-4.59;100.0
64025;BME280;50266;57.446;26.936;2024-03-08T04:15:22;99900.99;;;-4.7;100.0
64025;BME280;50266;57.446;26.936;2024-03-08T04:16:22;99903.55;;;-4.64;100.0
64025;BME280;50266;57.446;26.936;2024-03-08T04:17:22;99901.83;;;-4.59;100.0
64025;BME280;50266;57.446;26.936;2024-03-08T04:18:22;99905.34;;;-4.57;100.0
64025;BME280;50266;57.446;26.936;2024-03-08T04:19:22;99904.84;;;-4.51;100.0
64025;BME280;50266;57.446;26.936;2024-03-08T04:20:22;99900.78;;;-4.51;100.0
64025;BME280;50266;57.446;26.936;2024-03-08T04:21:22;99906.19;;;-4.49;100.0
64025;BME280;50266;57.446;26.936;2024-03-08T04:22:22;99905.22;;;-4.47;100.0
64025;BME280;50266;57.446;26.936;2024-03-08T04:23:22;99906.67;;;-4.53;100.0
64025;BME280;50266;57.446;26.936;2024-03-08T04:24:22;99900.94;;;-4.55;100.0
64025;BME280;50266;57.446;26.936;2024-03-08T04:25:22;99903.21;;;-4.54;100.0
64025;BME280;50266;57.446;26.936;2024-03-08T04:26:22;99904.27;;;-4.58;100.0
64025;BME280;50266;57.446;26.936;2024-03-08T04:27:22;99905.39;;;-4.63;100.0
64025;BME280;50266;57.446;26.936;2024-03-08T04:28:22;99905.81;;;-4.62;100.0
64025;BME280;50266;57.446;26.936;2024-03-08T04:29:22;99907.54;;;-4.65;100.0
64025;BME280;50266;57.446;26.936;2024-03-08T04:30:22;99906.31;;;-4.61;100.0
64025;BME280;50266;57.446;26.936;2024-03-08T04:31:22;99903.72;;;-4.62;100.0
64025;BME280;50266;57.446;26.936;2024-03-08T04:32:22;99910.31;;;-4.58;100.0
64025;BME280;50266;57.446;26.936;2024-03-08T04:33:22;99911.7;;;-4.66;100.0
64025;BME280;50266;57.446;26.936;2024-03-08T04:34:22;99914.11;;;-4.72;100.0
64025;BME280;50266;57.446;26.936;2024-03-08T04:35:22;99910.0;;;-4.75;100.0
64025;BME280;50266;57.446;26.936;2024-03-08T04:36:22;99906.88;;;-4.74;100.0
64025;BME280;50266;57.446;26.936;2024-03-08T04:37:22;99908.29;;;-4.69;100.0
64025;BME280;50266;57.446;26.936;2024-03-08T04:38:22;99909.05;;;-4.65;100.0
64025;BME280;50266;57.446;26.936;2024-03-08T04:39:22;99907.86;;;-4.67;100.0
64025;BME280;50266;57.446;26.936;2024-03-08T04:40:22;99905.16;;;-4.65;100.0
64025;BME280;50266;57.446;26.936;2024-03-08T04:41:22;99904.19;;;-4.65;100.0
64025;BME280;50266;57.446;26.936;2024-03-08T04:42:22;99900.3;;;-4.66;100.0
64025;BME280;50266;57.446;26.936;2024-03-08T04:43:22;99897.61;;;-4.63;100.0
64025;BME280;50266;57.446;26.936;2024-03-08T04:44:22;99893.48;;;-4.69;100.0
64025;BME280;50266;57.446;26.936;2024-03-08T04:45:22;99895.5;;;-4.63;100.0
64025;BME280;50266;57.446;26.936;2024-03-08T04:46:22;99899.98;;;-4.63;100.0
64025;BME280;50266;57.446;26.936;2024-03-08T04:47:22;99897.66;;;-4.64;100.0
64025;BME280;50266;57.446;26.936;2024-03-08T04:48:22;99891.5;;;-4.63;100.0
64025;BME280;50266;57.446;26.936;2024-03-08T04:49:22;99890.89;;;-4.69;100.0
64025;BME280;50266;57.446;26.936;2024-03-08T04:50:22;99893.49;;;-4.65;100.0
64025;BME280;50266;57.446;26.936;2024-03-08T04:51:22;99891.61;;;-4.63;100.0
64025;BME280;50266;57.446;26.936;2024-03-08T04:52:22;99890.13;;;-4.54;100.0
64025;BME280;50266;57.446;26.936;2024-03-08T04:53:22;99893.23;;;-4.59;100.0
64025;BME280;50266;57.446;26.936;2024-03-08T04:54:22;99896.43;;;-4.58;100.0
64025;BME280;50266;57.446;26.936;2024-03-08T04:55:22;99891.32;;;-4.55;100.0
64025;BME280;50266;57.446;26.936;2024-03-08T04:56:22;99895.75;;;-4.55;100.0
64025;BME280;50266;57.446;26.936;2024-03-08T04:57:22;99894.41;;;-4.54;100.0
64025;BME280;50266;57.446;26.936;2024-03-08T04:58:22;99895.92;;;-4.53;100.0
64025;BME280;50266;57.446;26.936;2024-03-08T04:59:22;99897.05;;;-4.51;100.0
64025;BME280;50266;57.446;26.936;2024-03-08T05:00:22;99898.09;;;-4.49;100.0
64025;BME280;50266;57.446;26.936;2024-03-08T05:01:22;99901.06;;;-4.48;100.0
64025;BME280;50266;57.446;26.936;2024-03-08T05:02:22;99900.14;;;-4.5;100.0
64025;BME280;50266;57.446;26.936;2024-03-08T05:03:22;99903.33;;;-4.49;100.0
64025;BME280;50266;57.446;26.936;2024-03-08T05:04:22;99904.52;;;-4.47;100.0
64025;BME280;50266;57.446;26.936;2024-03-08T05:05:22;99905.22;;;-4.51;100.0
64025;BME280;50266;57.446;26.936;2024-03-08T05:06:22;99905.86;;;-4.55;100.0
64025;BME280;50266;57.446;26.936;2024-03-08T05:07:22;99903.48;;;-4.53;100.0
64025;BME280;50266;57.446;26.936;2024-03-08T05:08:22;99909.29;;;-4.57;100.0
64025;BME280;50266;57.446;26.936;2024-03-08T05:09:22;99905.94;;;-4.58;100.0
64025;BME280;50266;57.446;26.936;2024-03-08T05:10:22;99903.12;;;-4.58;100.0
64025;BME280;50266;57.446;26.936;2024-03-08T05:11:28;99902.48;;;-4.58;100.0
64025;BME280;50266;57.446;26.936;2024-03-08T05:12:24;99902.97;;;-4.59;100.0
64025;BME280;50266;57.446;26.936;2024-03-08T05:13:25;99905.12;;;-4.57;100.0
64025;BME280;50266;57.446;26.936;2024-03-08T05:14:25;99906.62;;;-4.53;100.0